• pl
  • eng

Awiacja
NEWS
last updated: 12.09.2019 14:49<\/div>
Dear users,
We would like to inform you that from September 2nd a test form of the GAFOR forecast is available on our webpage. Please send your comments and suggestions to gafor@imgw.pl that will contribute to product development.
TAF FT 04:30 10.04.2020
  • WIND
  • SIGNIFICANT EURO
  • SIGNIFICANT
  • SIGMET
  • AIRMET
  • TAF FC
  • TAF FT
  • METAR GG30
  • METAR GG00


TAF EPBY 092330Z 1000/1024 29006KT CAVOK=

TAF EPGD 092330Z 1000/1024 25010KT CAVOK
BECMG 1003/1006 VRB02KT
PROB30 1003/1005 4000 BR=

TAF EPKK 100230Z 1003/1103 30005KT CAVOK
PROB30 TEMPO 1010/1015 SCT045TCU=

TAF EPKT 092330Z 1000/1024 32005KT CAVOK=

TAF EPLL 092330Z 1000/1024 30005KT CAVOK=

TAF EPMO 092330Z 1000/1024 34005KT CAVOK
BECMG 1006/1009 28010KT
BECMG 1018/1021 VRB02KT=

TAF EPPO 092330Z 1000/1024 33004KT CAVOK=

TAF EPRZ 092330Z 1000/1024 32010KT CAVOK
PROB40 TEMPO 1010/1015 SCT045TCU
BECMG 1016/1019 VRB02KT=

TAF EPSC 092330Z 1000/1024 VRB04KT CAVOK
PROB30 1002/1005 2500 BR=

TAF EPWA 100230Z 1003/1103 29010KT CAVOK
BECMG 1018/1021 VRB02KT=

TAF EPWR 100230Z 1003/1103 33005KT CAVOK=
Awiacja.imgw.pl jest pogodowym serwisem informacyjnym
Instytutu Meteorologii i Gospodarki Wodnej Państwowego Instytutu Badawczego.
Copyright IMGW PIB 2009-2019© Wszelkie prawa zastrzeżone.